map of TSM home
TSM - Airport
Location
City:  Taos, New Mexico, United States
Name:Taos Regional
ICAO:KSKX
IATA:TSM
FAA LID:SKX

Details
Type:Airport (Airfield)
Use:Public/Civil
Latitude:3627'06"N (36.451694)
Longitude:10540'23"W (-105.673082)
Datum:WGS 1984
Elevation:7094 ft (2162 m)
Variation:8.17E (WMM2015 magnetic declination)
-0.10 annual change
Runways:2
Longest:8600 × 100 ft (2621 × 30.5 m), paved

Time
Time Zone:UTC-7 (DST-6)
Local Time:

Weather
METAR:KSKX 210356Z AUTO 12009KT 10SM CLR 06/M03 A3049 RMK AO2 SLP305 T00611033 $

Related Locations
Nearby:
Farthest:RRG: 11106 mi / 17873 km
Plaine Corail [Sir Gatan Duval Airport (Plaine Corail Airport)], Rodrigues Island, MU

Find:

   beyond  
but within

Other Information
Maps:
NOTAMs:
Links:
Sources:

  
  • flag of United States
  • flag of New Mexico
  

Sectional Chart

Flight Planning
at skyvector.com

Satellite Image

Google Maps Satellite view

 

Copyright © 2004-2018 Karl L. Swartz. All rights reserved.
The Great Circle Mapper name and logo are trademarks of the Great Circle Mapper.
All other trademarks mentioned herein belong to their respective owners.
Please see credits for attibutions and further copyright information.

  Follow gcmap on Facebook Follow gcmap on Twitter Follow gcmap on Google+ GCmap on LinkedIn

hCard Microformat

Geo Microformat